Terminal Aerodrome Forecast
Issued by NWS Blacksburg, VA

Home | Current Version | Previous Version | Text Only | Print | Product List | Glossary On
Versions: 1 2 3 4 5 6 7 8 9 10 11 12 13 14 15 16 17 18 19 20 21 22 23 24 25 26 27 28 29 30 31 32 33 34 35 36 37 38 39 40 41
000
FTUS41 KRNK 202320
TAFROA
TAF
KROA 202320Z 2100/2124 VRB03KT P6SM VCSH SCT050
     FM210300 29003KT P6SM FEW050 BKN150
      TEMPO 2110/2112 3SM BR BKN015
     FM211500 30006KT P6SM BKN120
     FM211900 29008KT P6SM VCTS BKN060CB=

USA.gov is the U.S. government's official web portal to all federal, state and local government web resources and services.